createdAt,value
2017-01-21T00:01:47.267Z,0
2017-01-21T00:03:59.488Z,0
2017-01-21T00:06:11.690Z,0
2017-01-21T00:08:24.609Z,0
2017-01-21T00:10:37.239Z,0
2017-01-21T00:12:49.640Z,0
2017-01-21T00:15:02.001Z,0
2017-01-21T00:17:14.193Z,0
2017-01-21T00:19:26.572Z,0
2017-01-21T00:21:38.950Z,0
2017-01-21T00:23:51.316Z,0
2017-01-21T00:26:03.568Z,0
2017-01-21T00:28:10.926Z,0
2017-01-21T00:30:23.124Z,0
2017-01-21T00:32:35.340Z,0
2017-01-21T00:34:47.476Z,0
2017-01-21T00:37:00.056Z,0
2017-01-21T00:39:07.339Z,0
2017-01-21T00:41:19.583Z,0
2017-01-21T00:43:32.702Z,0
2017-01-21T00:45:44.857Z,0
2017-01-21T00:47:57.069Z,0
2017-01-21T00:50:07.619Z,0
2017-01-21T00:52:20.032Z,0
2017-01-21T00:54:32.254Z,0
2017-01-21T00:56:44.554Z,0
2017-01-21T00:58:56.725Z,0
2017-01-21T01:01:03.897Z,0
2017-01-21T01:03:16.280Z,0
2017-01-21T01:07:39.141Z,0
2017-01-21T01:09:51.388Z,0
2017-01-21T01:12:03.576Z,0
2017-01-21T01:14:15.864Z,0
2017-01-21T01:16:28.332Z,0
2017-01-21T01:18:41.154Z,0
2017-01-21T01:20:53.465Z,0
2017-01-21T01:23:05.739Z,0
2017-01-21T01:25:18.179Z,0
2017-01-21T01:27:20.476Z,0
2017-01-21T01:29:32.674Z,0
2017-01-21T01:31:44.973Z,0
2017-01-21T01:33:57.288Z,0
2017-01-21T01:36:09.473Z,0
2017-01-21T01:38:16.741Z,0
2017-01-21T01:40:29.110Z,0
2017-01-21T01:42:41.476Z,0
2017-01-21T01:44:48.811Z,0
2017-01-21T01:46:56.090Z,0
2017-01-21T01:49:03.404Z,0
2017-01-21T01:51:16.322Z,0
2017-01-21T01:53:28.903Z,0
2017-01-21T01:55:41.133Z,0
2017-01-21T01:57:53.666Z,0
2017-01-21T02:00:05.890Z,0
2017-01-21T02:02:18.137Z,0
2017-01-21T02:04:30.475Z,0
2017-01-21T02:06:37.695Z,0
2017-01-21T02:08:49.990Z,0
2017-01-21T02:10:52.418Z,0
2017-01-21T02:13:04.660Z,0
2017-01-21T02:15:17.033Z,0
2017-01-21T02:17:29.307Z,0
2017-01-21T02:19:41.544Z,0
2017-01-21T02:21:48.821Z,0
2017-01-21T02:24:01.095Z,0
2017-01-21T02:26:13.792Z,0
2017-01-21T02:28:21.263Z,0
2017-01-21T02:30:28.565Z,0
2017-01-21T02:32:40.787Z,0
2017-01-21T02:34:47.958Z,0
2017-01-21T02:37:00.162Z,0
2017-01-21T02:39:07.341Z,0
2017-01-21T02:41:20.021Z,0
2017-01-21T02:43:32.382Z,0
2017-01-21T02:45:44.637Z,0
2017-01-21T02:47:51.892Z,0
2017-01-21T02:50:04.296Z,0
2017-01-21T02:52:11.768Z,0
2017-01-21T02:54:23.931Z,0
2017-01-21T02:56:31.218Z,0
2017-01-21T02:58:43.561Z,0
2017-01-21T03:00:51.997Z,0
2017-01-21T03:03:04.444Z,0
2017-01-21T03:05:16.651Z,0
2017-01-21T03:07:29.045Z,0
2017-01-21T03:09:41.304Z,0
2017-01-21T03:11:53.458Z,0
2017-01-21T03:14:05.886Z,0
2017-01-21T03:16:18.135Z,0
2017-01-21T03:18:25.329Z,0
2017-01-21T03:20:35.880Z,0
2017-01-21T03:22:48.194Z,0
2017-01-21T03:24:55.513Z,0
2017-01-21T03:27:07.935Z,0
2017-01-21T03:29:20.198Z,0
2017-01-21T03:31:32.527Z,0
2017-01-21T03:33:44.991Z,0
2017-01-21T03:35:57.515Z,0
2017-01-21T03:38:08.148Z,0
2017-01-21T03:40:20.436Z,0
2017-01-21T03:42:32.895Z,0
2017-01-21T03:44:45.298Z,0
2017-01-21T03:46:57.578Z,0
2017-01-21T03:49:10.002Z,0
2017-01-21T03:51:22.439Z,0
2017-01-21T03:53:29.915Z,0
2017-01-21T03:55:42.259Z,0
2017-01-21T03:57:54.747Z,0
2017-01-21T04:00:07.198Z,0
2017-01-21T04:02:19.503Z,0
2017-01-21T04:04:31.983Z,0
2017-01-21T04:06:44.122Z,0
2017-01-21T04:08:56.434Z,0
2017-01-21T04:11:09.153Z,0
2017-01-21T04:13:21.803Z,0
2017-01-21T04:15:24.144Z,0
2017-01-21T04:17:36.432Z,0
2017-01-21T04:19:48.727Z,0
2017-01-21T04:22:00.913Z,0
2017-01-21T04:24:08.092Z,0
2017-01-21T04:26:20.367Z,0
2017-01-21T04:28:32.608Z,0
2017-01-21T04:32:55.433Z,0
2017-01-21T04:35:07.615Z,0
2017-01-21T04:37:19.924Z,0
2017-01-21T04:39:32.231Z,0
2017-01-21T04:41:39.466Z,0
2017-01-21T04:43:51.712Z,0
2017-01-21T04:46:04.446Z,0
2017-01-21T04:48:16.727Z,0
2017-01-21T04:50:28.953Z,0
2017-01-21T04:52:34.612Z,0
2017-01-21T04:54:42.037Z,0
2017-01-21T04:56:54.531Z,0
2017-01-21T04:59:06.963Z,0
2017-01-21T05:01:19.247Z,0
2017-01-21T05:03:31.657Z,0
2017-01-21T05:05:43.911Z,0
2017-01-21T05:07:56.189Z,0
2017-01-21T05:10:08.451Z,0
2017-01-21T05:12:20.752Z,0
2017-01-21T05:14:33.094Z,0
2017-01-21T05:16:40.289Z,0
2017-01-21T05:18:52.738Z,0
2017-01-21T05:21:01.505Z,0
2017-01-21T05:23:14.823Z,0
2017-01-21T05:25:27.800Z,0
2017-01-21T05:27:41.230Z,0
2017-01-21T05:29:54.146Z,0
2017-01-21T05:32:01.940Z,0
2017-01-21T05:34:14.955Z,0
2017-01-21T05:36:27.866Z,0
2017-01-21T05:38:40.827Z,0
2017-01-21T05:40:53.924Z,0
2017-01-21T05:43:06.712Z,0
2017-01-21T05:45:19.280Z,0
2017-01-21T05:47:31.934Z,0
2017-01-21T05:49:44.703Z,0
2017-01-21T05:51:58.114Z,0
2017-01-21T05:54:11.585Z,0
2017-01-21T05:56:24.966Z,0
2017-01-21T05:58:37.782Z,0
2017-01-21T06:00:50.557Z,0
2017-01-21T06:03:03.619Z,0
2017-01-21T06:05:16.582Z,0
2017-01-21T06:07:29.617Z,0
2017-01-21T06:09:48.679Z,0
2017-01-21T06:12:01.513Z,0
2017-01-21T06:14:14.425Z,0
2017-01-21T06:16:27.457Z,0
2017-01-21T06:18:47.406Z,0
2017-01-21T06:20:55.300Z,0
2017-01-21T06:23:08.538Z,0
2017-01-21T06:25:21.228Z,0
2017-01-21T06:27:32.287Z,0
2017-01-21T06:29:45.644Z,0
2017-01-21T06:31:58.267Z,0
2017-01-21T06:34:06.024Z,0
2017-01-21T06:36:13.790Z,0
2017-01-21T06:38:26.122Z,0
2017-01-21T06:40:38.772Z,0
2017-01-21T06:42:58.432Z,5
2017-01-21T06:45:15.686Z,5
2017-01-21T06:47:28.455Z,5
2017-01-21T06:49:41.261Z,10
2017-01-21T06:51:49.175Z,10
2017-01-21T06:54:02.181Z,15
2017-01-21T06:56:15.022Z,15
2017-01-21T06:58:28.039Z,20
2017-01-21T07:00:40.848Z,25
2017-01-21T07:02:53.542Z,30
2017-01-21T07:05:06.899Z,35
2017-01-21T07:07:19.110Z,40
2017-01-21T07:09:31.418Z,45
2017-01-21T07:11:43.640Z,50
2017-01-21T07:13:55.983Z,55
2017-01-21T07:16:08.356Z,60
2017-01-21T07:18:20.997Z,65
2017-01-21T07:20:33.621Z,70
2017-01-21T07:22:45.975Z,80
2017-01-21T07:24:58.243Z,85
2017-01-21T07:27:10.667Z,95
2017-01-21T07:29:23.309Z,105
2017-01-21T07:31:35.813Z,110
2017-01-21T07:33:48.655Z,115
2017-01-21T07:36:01.090Z,125
2017-01-21T07:38:13.752Z,135
2017-01-21T07:40:26.388Z,145
2017-01-21T07:42:38.692Z,150
2017-01-21T07:44:50.996Z,155
2017-01-21T07:47:03.474Z,165
2017-01-21T07:49:09.385Z,175
2017-01-21T07:51:21.606Z,180
2017-01-21T07:53:27.151Z,185
2017-01-21T07:55:39.456Z,190
2017-01-21T07:57:46.707Z,195
2017-01-21T07:59:59.038Z,200
2017-01-21T08:02:06.463Z,205
2017-01-21T08:04:18.750Z,215
2017-01-21T08:06:26.466Z,225
2017-01-21T08:08:39.580Z,225
2017-01-21T08:10:52.612Z,240
2017-01-21T08:13:05.814Z,255
2017-01-21T08:15:18.960Z,265
2017-01-21T08:17:34.269Z,270
2017-01-21T08:19:48.329Z,285
2017-01-21T08:22:02.196Z,295
2017-01-21T08:24:15.803Z,310
2017-01-21T08:26:30.081Z,315
2017-01-21T08:28:42.846Z,340
2017-01-21T08:30:55.296Z,325
2017-01-21T08:33:08.550Z,345
2017-01-21T08:35:15.947Z,370
2017-01-21T08:37:28.304Z,390
2017-01-21T08:39:40.741Z,380
2017-01-21T08:41:53.036Z,395
2017-01-21T08:44:12.154Z,415
2017-01-21T08:46:24.630Z,410
2017-01-21T08:48:37.467Z,435
2017-01-21T08:50:49.860Z,455
2017-01-21T08:53:02.233Z,450
2017-01-21T08:55:14.642Z,455
2017-01-21T08:57:27.066Z,450
2017-01-21T08:59:39.478Z,430
2017-01-21T09:01:52.688Z,435
2017-01-21T09:04:05.686Z,440
2017-01-21T09:06:13.029Z,435
2017-01-21T09:08:20.313Z,435
2017-01-21T09:10:32.759Z,435
2017-01-21T09:12:40.261Z,455
2017-01-21T09:14:52.688Z,485
2017-01-21T09:17:05.153Z,510
2017-01-21T09:19:17.679Z,545
2017-01-21T09:21:31.485Z,555
2017-01-21T09:23:48.098Z,590
2017-01-21T09:25:56.797Z,640
2017-01-21T09:28:07.960Z,640
2017-01-21T09:30:28.975Z,600
2017-01-21T09:32:41.261Z,600
2017-01-21T09:34:49.041Z,670
2017-01-21T09:37:01.282Z,665
2017-01-21T09:39:14.072Z,570
2017-01-21T09:41:26.911Z,615
2017-01-21T09:43:39.821Z,755
2017-01-21T09:45:47.272Z,595
2017-01-21T09:47:59.478Z,725
2017-01-21T09:50:11.725Z,705
2017-01-21T09:52:18.970Z,685
2017-01-21T09:54:31.310Z,645
2017-01-21T09:56:44.907Z,630
2017-01-21T09:58:58.175Z,660
2017-01-21T10:01:10.656Z,705
2017-01-21T10:03:23.696Z,695
2017-01-21T10:05:30.968Z,775
2017-01-21T10:07:38.429Z,760
2017-01-21T10:09:52.308Z,810
2017-01-21T10:12:04.844Z,785
2017-01-21T10:14:17.141Z,755
2017-01-21T10:16:29.605Z,810
2017-01-21T10:18:42.051Z,810
2017-01-21T10:20:55.648Z,815
2017-01-21T10:23:08.144Z,810
2017-01-21T10:25:15.886Z,765
2017-01-21T10:27:29.411Z,795
2017-01-21T10:29:44.368Z,890
2017-01-21T10:31:57.597Z,870
2017-01-21T10:34:10.801Z,895
2017-01-21T10:36:23.923Z,910
2017-01-21T10:38:36.649Z,925
2017-01-21T10:40:50.241Z,955
2017-01-21T10:43:02.533Z,960
2017-01-21T10:45:16.859Z,965
2017-01-21T10:47:29.134Z,975
2017-01-21T10:49:44.403Z,985
2017-01-21T10:51:45.661Z,1145
2017-01-21T10:53:58.118Z,1510
2017-01-21T10:56:10.638Z,1585
2017-01-21T10:58:25.848Z,1645
2017-01-21T11:00:40.912Z,1580
2017-01-21T11:02:53.251Z,1755
2017-01-21T11:05:06.898Z,1595
2017-01-21T11:07:19.265Z,1785
2017-01-21T11:09:31.844Z,1660
2017-01-21T11:11:44.757Z,1630
2017-01-21T11:13:57.498Z,1585
2017-01-21T11:16:09.960Z,1505
2017-01-21T11:18:22.351Z,1670
2017-01-21T11:20:35.304Z,1790
2017-01-21T11:22:47.787Z,1615
2017-01-21T11:25:00.111Z,1630
2017-01-21T11:27:12.508Z,1760
2017-01-21T11:29:25.604Z,1610
2017-01-21T11:31:36.557Z,1695
2017-01-21T11:33:51.158Z,1690
2017-01-21T11:38:15.848Z,1595
2017-01-21T11:40:28.619Z,1680
2017-01-21T11:42:40.909Z,1745
2017-01-21T11:44:48.943Z,1750
2017-01-21T11:47:01.268Z,1810
2017-01-21T11:49:08.653Z,1740
2017-01-21T11:51:21.316Z,1700
2017-01-21T11:53:33.564Z,1485
2017-01-21T11:55:46.292Z,1525
2017-01-21T11:57:58.735Z,1605
2017-01-21T12:00:11.345Z,1595
2017-01-21T12:02:23.844Z,1255
2017-01-21T12:04:36.286Z,1615
2017-01-21T12:06:48.747Z,1340
2017-01-21T12:09:01.076Z,1255
2017-01-21T12:11:13.423Z,1475
2017-01-21T12:13:25.817Z,1055
2017-01-21T12:15:38.435Z,1065
2017-01-21T12:17:51.453Z,1375
2017-01-21T12:20:11.030Z,1455
2017-01-21T12:22:19.575Z,1415
2017-01-21T12:24:32.493Z,1075
2017-01-21T12:26:46.009Z,1250
2017-01-21T12:29:01.323Z,1190
2017-01-21T12:31:13.990Z,960
2017-01-21T12:33:21.590Z,975
2017-01-21T12:35:35.851Z,1005
2017-01-21T12:37:48.297Z,950
2017-01-21T12:40:02.317Z,835
2017-01-21T12:42:12.726Z,995
2017-01-21T12:44:26.279Z,920
2017-01-21T12:46:43.682Z,915
2017-01-21T12:48:51.182Z,890
2017-01-21T12:51:03.534Z,900
2017-01-21T12:53:17.414Z,820
2017-01-21T12:55:29.760Z,765
2017-01-21T12:58:11.781Z,810
2017-01-21T13:00:19.187Z,810
2017-01-21T13:02:32.423Z,830
2017-01-21T13:04:44.872Z,795
2017-01-21T13:06:57.333Z,805
2017-01-21T13:09:10.411Z,730
2017-01-21T13:11:23.825Z,905
2017-01-21T13:13:36.230Z,825
2017-01-21T13:15:48.641Z,780
2017-01-21T13:18:01.301Z,810
2017-01-21T13:20:14.444Z,725
2017-01-21T13:22:26.805Z,775
2017-01-21T13:24:40.251Z,900
2017-01-21T13:26:47.985Z,815
2017-01-21T13:29:01.154Z,775
2017-01-21T13:31:18.634Z,815
2017-01-21T13:33:31.040Z,765
2017-01-21T13:35:43.457Z,680
2017-01-21T13:37:55.712Z,790
2017-01-21T13:40:08.191Z,855
2017-01-21T13:42:20.358Z,785
2017-01-21T13:44:32.577Z,760
2017-01-21T13:46:45.015Z,765
2017-01-21T13:48:57.517Z,875
2017-01-21T13:51:09.934Z,825
2017-01-21T13:53:22.130Z,845
2017-01-21T13:55:34.398Z,830
2017-01-21T13:57:41.730Z,810
2017-01-21T13:59:54.107Z,815
2017-01-21T14:02:06.915Z,750
2017-01-21T14:04:19.529Z,690
2017-01-21T14:06:31.847Z,685
2017-01-21T14:08:44.113Z,715
2017-01-21T14:10:54.953Z,680
2017-01-21T14:13:07.328Z,640
2017-01-21T14:15:19.631Z,735
2017-01-21T14:17:31.912Z,690
2017-01-21T14:19:44.222Z,580
2017-01-21T14:21:56.441Z,500
2017-01-21T14:24:09.011Z,475
2017-01-21T14:26:21.249Z,465
2017-01-21T14:28:33.651Z,450
2017-01-21T14:30:46.409Z,435
2017-01-21T14:32:58.724Z,425
2017-01-21T14:35:11.166Z,405
2017-01-21T14:37:23.745Z,395
2017-01-21T14:39:36.052Z,385
2017-01-21T14:41:48.576Z,355
2017-01-21T14:44:00.942Z,340
2017-01-21T14:46:13.189Z,320
2017-01-21T14:48:25.682Z,310
2017-01-21T14:50:38.065Z,295
2017-01-21T14:52:45.652Z,285
2017-01-21T14:54:58.000Z,270
2017-01-21T14:57:05.385Z,250
2017-01-21T14:59:12.740Z,240
2017-01-21T15:01:25.101Z,220
2017-01-21T15:03:37.529Z,205
2017-01-21T15:05:49.980Z,195
2017-01-21T15:08:02.525Z,190
2017-01-21T15:10:10.079Z,175
2017-01-21T15:12:23.395Z,165
2017-01-21T15:14:35.852Z,155
2017-01-21T15:16:48.205Z,150
2017-01-21T15:19:00.985Z,140
2017-01-21T15:21:15.599Z,130
2017-01-21T15:23:27.945Z,120
2017-01-21T15:25:40.252Z,115
2017-01-21T15:27:52.602Z,105
2017-01-21T15:30:04.980Z,95
2017-01-21T15:32:17.246Z,90
2017-01-21T15:34:29.505Z,85
2017-01-21T15:36:36.857Z,80
2017-01-21T15:38:49.321Z,70
2017-01-21T15:41:01.815Z,65
2017-01-21T15:43:14.226Z,55
2017-01-21T15:45:26.775Z,50
2017-01-21T15:47:39.547Z,40
2017-01-21T15:49:52.121Z,35
2017-01-21T15:51:59.733Z,30
2017-01-21T15:54:12.263Z,25
2017-01-21T15:56:24.684Z,20
2017-01-21T15:58:35.158Z,20
2017-01-21T16:00:47.465Z,15
2017-01-21T16:02:59.859Z,10
2017-01-21T16:05:12.269Z,10
2017-01-21T16:07:19.492Z,5
2017-01-21T16:09:31.764Z,5
2017-01-21T16:11:43.995Z,5
2017-01-21T16:13:56.390Z,0
2017-01-21T16:16:08.785Z,0
2017-01-21T16:18:21.226Z,0
2017-01-21T16:20:33.553Z,0
2017-01-21T16:22:46.109Z,0
2017-01-21T16:24:58.674Z,0
2017-01-21T16:27:10.933Z,0
2017-01-21T16:29:23.200Z,0
2017-01-21T16:31:35.452Z,0
2017-01-21T16:33:47.940Z,0
2017-01-21T16:36:00.382Z,0
2017-01-21T16:38:12.719Z,0
2017-01-21T16:40:25.188Z,0
2017-01-21T16:42:37.558Z,0
2017-01-21T16:44:50.121Z,0
2017-01-21T16:47:02.610Z,0
2017-01-21T16:49:15.277Z,0
2017-01-21T16:51:27.884Z,0
2017-01-21T16:53:35.602Z,0
2017-01-21T16:55:43.007Z,0
2017-01-21T16:57:48.679Z,0
2017-01-21T17:00:01.292Z,0
2017-01-21T17:02:13.729Z,0
2017-01-21T17:04:26.240Z,0
2017-01-21T17:08:49.158Z,0
2017-01-21T17:11:01.546Z,0
2017-01-21T17:13:13.994Z,0
2017-01-21T17:15:26.533Z,0
2017-01-21T17:17:38.942Z,0
2017-01-21T17:19:51.402Z,0
2017-01-21T17:22:03.702Z,0
2017-01-21T17:24:15.916Z,0
2017-01-21T17:26:28.615Z,0
2017-01-21T17:28:40.851Z,0
2017-01-21T17:30:48.170Z,0
2017-01-21T17:33:00.473Z,0
2017-01-21T17:35:13.360Z,0
2017-01-21T17:37:20.702Z,0
2017-01-21T17:39:28.143Z,0
2017-01-21T17:41:40.803Z,0
2017-01-21T17:43:53.217Z,0
2017-01-21T17:46:05.711Z,0
2017-01-21T17:48:18.016Z,0
2017-01-21T17:50:30.525Z,0
2017-01-21T17:52:42.967Z,0
2017-01-21T17:54:55.238Z,0
2017-01-21T17:57:02.640Z,0
2017-01-21T17:59:10.139Z,0
2017-01-21T18:01:22.543Z,0
2017-01-21T18:03:35.009Z,0
2017-01-21T18:05:47.544Z,0
2017-01-21T18:07:58.510Z,0
2017-01-21T18:10:06.064Z,0
2017-01-21T18:12:18.569Z,0
2017-01-21T18:14:31.162Z,0
2017-01-21T18:16:43.665Z,0
2017-01-21T18:18:56.156Z,0
2017-01-21T18:21:09.170Z,0
2017-01-21T18:23:22.983Z,0
2017-01-21T18:25:37.713Z,0
2017-01-21T18:27:45.332Z,0
2017-01-21T18:29:57.696Z,0
2017-01-21T18:32:10.851Z,0
2017-01-21T18:34:23.445Z,0
2017-01-21T18:36:36.397Z,0
2017-01-21T18:38:53.284Z,0
2017-01-21T18:41:08.483Z,0
2017-01-21T18:43:22.359Z,0
2017-01-21T18:45:35.829Z,0
2017-01-21T18:47:46.844Z,0
2017-01-21T18:49:57.571Z,0
2017-01-21T18:52:09.993Z,0
2017-01-21T18:54:17.735Z,0
2017-01-21T18:56:30.163Z,0
2017-01-21T18:58:42.549Z,0
2017-01-21T19:00:54.978Z,0
2017-01-21T19:03:07.715Z,0
2017-01-21T19:05:20.191Z,0
2017-01-21T19:07:32.775Z,0
2017-01-21T19:09:45.157Z,0
2017-01-21T19:11:52.742Z,0
2017-01-21T19:14:05.174Z,0
2017-01-21T19:16:17.827Z,0
2017-01-21T19:18:30.214Z,0
2017-01-21T19:20:43.089Z,0
2017-01-21T19:22:55.889Z,0
2017-01-21T19:25:08.364Z,0
2017-01-21T19:27:16.053Z,0
2017-01-21T19:29:23.712Z,0
2017-01-21T19:31:31.444Z,0
2017-01-21T19:33:44.245Z,0
2017-01-21T19:35:53.663Z,0
2017-01-21T19:38:07.578Z,0
2017-01-21T19:40:20.219Z,0
2017-01-21T19:42:33.673Z,0
2017-01-21T19:44:47.135Z,0
2017-01-21T19:46:59.688Z,0
2017-01-21T19:49:12.533Z,0
2017-01-21T19:51:28.191Z,0
2017-01-21T19:53:41.168Z,0
2017-01-21T19:56:06.883Z,0
2017-01-21T19:58:24.015Z,0
2017-01-21T20:00:38.085Z,0
2017-01-21T20:02:50.899Z,0
2017-01-21T20:04:59.422Z,0
2017-01-21T20:07:12.976Z,0
2017-01-21T20:09:27.576Z,0
2017-01-21T20:11:46.596Z,0
2017-01-21T20:14:12.588Z,0
2017-01-21T20:16:28.937Z,0
2017-01-21T20:18:47.491Z,0
2017-01-21T20:21:07.163Z,0
2017-01-21T20:23:24.926Z,0
2017-01-21T20:25:41.727Z,0
2017-01-21T20:27:56.335Z,0
2017-01-21T20:30:18.994Z,0
2017-01-21T20:32:37.240Z,0
2017-01-21T20:34:50.382Z,0
2017-01-21T20:37:15.112Z,0
2017-01-21T20:39:34.785Z,0
2017-01-21T20:42:07.037Z,0
2017-01-21T20:44:31.167Z,0
2017-01-21T20:46:48.611Z,0
2017-01-21T20:49:01.962Z,0
2017-01-21T20:51:14.914Z,0
2017-01-21T20:53:33.271Z,0
2017-01-21T20:56:01.853Z,0
2017-01-21T20:58:16.114Z,0
2017-01-21T21:00:41.637Z,0
2017-01-21T21:03:06.524Z,0
2017-01-21T21:05:21.306Z,0
2017-01-21T21:07:41.450Z,0
2017-01-21T21:10:04.001Z,0
2017-01-21T21:12:19.263Z,0
2017-01-21T21:14:46.337Z,0
2017-01-21T21:16:59.538Z,0
2017-01-21T21:19:12.400Z,0
2017-01-21T21:21:20.995Z,0
2017-01-21T21:23:33.649Z,0
2017-01-21T21:25:48.707Z,0
2017-01-21T21:28:16.133Z,0
2017-01-21T21:30:47.516Z,0
2017-01-21T21:33:04.651Z,0
2017-01-21T21:35:21.836Z,0
2017-01-21T21:37:39.732Z,0
2017-01-21T21:39:53.069Z,0
2017-01-21T21:42:06.339Z,0
2017-01-21T21:44:19.155Z,0
2017-01-21T21:46:33.531Z,0
2017-01-21T21:48:45.857Z,0
2017-01-21T21:50:59.710Z,0
2017-01-21T21:53:12.355Z,0
2017-01-21T21:55:28.286Z,0
2017-01-21T21:57:40.562Z,0
2017-01-21T21:59:53.428Z,0
2017-01-21T22:02:06.610Z,0
2017-01-21T22:04:25.991Z,0
2017-01-21T22:06:44.765Z,0
2017-01-21T22:09:01.026Z,0
2017-01-21T22:11:13.858Z,0
2017-01-21T22:13:21.876Z,0
2017-01-21T22:15:37.916Z,0
2017-01-21T22:17:52.452Z,0
2017-01-21T22:20:00.158Z,0
2017-01-21T22:22:12.740Z,0
2017-01-21T22:26:36.187Z,0
2017-01-21T22:28:48.632Z,0
2017-01-21T22:31:00.969Z,0
2017-01-21T22:33:13.225Z,0
2017-01-21T22:35:25.450Z,0
2017-01-21T22:37:37.797Z,0
2017-01-21T22:39:50.170Z,0
2017-01-21T22:42:06.164Z,0
2017-01-21T22:44:13.594Z,0
2017-01-21T22:46:21.123Z,0
2017-01-21T22:48:29.219Z,0
2017-01-21T22:50:42.105Z,0
2017-01-21T22:52:56.181Z,0
2017-01-21T22:55:08.725Z,0
2017-01-21T22:57:21.170Z,0
2017-01-21T22:59:34.915Z,0
2017-01-21T23:01:47.332Z,0
2017-01-21T23:03:59.759Z,0
2017-01-21T23:06:07.150Z,0
2017-01-21T23:08:19.762Z,0
2017-01-21T23:10:32.625Z,0
2017-01-21T23:12:48.151Z,0
2017-01-21T23:15:02.312Z,0
2017-01-21T23:17:12.156Z,0
2017-01-21T23:19:25.103Z,0
2017-01-21T23:21:43.597Z,0
2017-01-21T23:23:57.315Z,0
2017-01-21T23:26:10.377Z,0
2017-01-21T23:28:22.905Z,0
2017-01-21T23:30:35.598Z,0
2017-01-21T23:32:43.356Z,0
2017-01-21T23:34:55.725Z,0
2017-01-21T23:37:07.999Z,0
2017-01-21T23:39:20.366Z,0
2017-01-21T23:41:32.950Z,0
2017-01-21T23:43:45.271Z,0
2017-01-21T23:45:57.829Z,0
2017-01-21T23:48:10.101Z,0
2017-01-21T23:50:22.590Z,0
2017-01-21T23:52:29.770Z,0
2017-01-21T23:54:41.985Z,0
2017-01-21T23:56:49.681Z,0
2017-01-21T23:59:02.395Z,0
